Time;durP1;ratioP1;P1;durP2;ratioP2;P2;SDS_P1;SDS_P2;PMS_P1;PMS_P2;Temp;Humidity;BMP_temperature;BMP_pressure;BME280_temperature;BME280_humidity;BME280_pressure;Samples;Min_cycle;Max_cycle;Signal;HPM_P1;HPM_P2
2022/10/24 00:00:22;;;;;;;;;0.00;0.00;;;;;15.68;100.00;99732.78;5139433;27;47824;-94
2022/10/24 00:02:47;;;;;;;;;0.00;0.00;;;;;15.86;100.00;99741.59;5122054;27;45268;-93
2022/10/24 00:05:13;;;;;;;;;1.00;1.00;;;;;15.33;100.00;99663.66;5122713;27;45402;-93
2022/10/24 00:07:39;;;;;;;;;0.00;0.00;;;;;15.26;100.00;99672.94;5120532;27;45345;-94
2022/10/24 00:10:06;;;;;;;;;0.00;0.00;;;;;15.71;100.00;99737.94;5115168;27;47516;-93
2022/10/24 00:12:32;;;;;;;;;0.25;0.25;;;;;15.91;100.00;99774.19;5152255;27;45201;-95
2022/10/24 00:14:58;;;;;;;;;1.50;0.00;;;;;15.01;100.00;99610.34;5124526;27;45193;-94
2022/10/24 00:17:23;;;;;;;;;0.25;0.25;;;;;15.31;100.00;99676.19;5120616;27;45161;-96
2022/10/24 00:19:49;;;;;;;;;0.00;0.00;;;;;15.04;100.00;99642.13;5135533;27;47747;-94
2022/10/24 00:25:48;;;;;;;;;0.75;0.75;;;;;15.62;100.00;99730.44;5121014;27;45217;-93
2022/10/24 00:28:13;;;;;;;;;1.25;0.00;;;;;15.63;99.81;99734.84;5119354;27;45645;-93
2022/10/24 00:30:39;;;;;;;;;1.75;0.50;;;;;15.38;100.00;99719.31;5146595;27;46884;-93
2022/10/24 00:33:06;;;;;;;;;1.00;0.00;;;;;15.11;100.00;99671.94;5124055;27;45727;-92
2022/10/24 00:35:31;;;;;;;;;0.00;0.00;;;;;15.66;100.00;99766.63;5136489;27;45440;-92
2022/10/24 00:37:57;;;;;;;;;2.25;0.00;;;;;15.51;100.00;99735.50;5117636;27;45243;-93
2022/10/24 00:40:22;;;;;;;;;0.00;0.00;;;;;14.92;100.00;99664.06;5114743;27;48089;-94
2022/10/24 00:42:48;;;;;;;;;2.50;1.50;;;;;15.01;100.00;99684.84;5116059;27;45781;-93
2022/10/24 00:45:41;;;;;;;;;0.25;0.25;;;;;15.99;100.00;99832.41;5103557;27;45422;-93
2022/10/24 00:48:25;;;;;;;;;0.50;0.50;;;;;15.95;100.00;99830.84;5120707;27;45399;-93
2022/10/24 00:50:55;;;;;;;;;0.50;0.50;;;;;15.74;100.00;99791.03;5138798;27;48356;-93
2022/10/24 00:53:22;;;;;;;;;0.00;0.00;;;;;14.83;100.00;99645.91;5124228;27;45822;-93
2022/10/24 00:55:52;;;;;;;;;1.00;0.00;;;;;15.63;100.00;99796.94;5124348;27;45229;-93
2022/10/24 00:58:21;;;;;;;;;0.50;0.25;;;;;15.32;100.00;99740.94;5143672;27;44834;-94
2022/10/24 01:00:49;;;;;;;;;1.00;1.00;;;;;14.98;100.00;99700.97;5132400;27;47311;-93
2022/10/24 01:03:18;;;;;;;;;0.00;0.00;;;;;15.68;100.00;99823.34;5137552;27;44749;-93
2022/10/24 01:06:12;;;;;;;;;0.25;0.25;;;;;15.51;100.00;99794.09;5132865;27;45309;-93
2022/10/24 01:08:49;;;;;;;;;0.25;0.25;;;;;15.84;100.00;99849.22;5146287;27;45316;-93
2022/10/24 01:11:36;;;;;;;;;0.00;0.00;;;;;15.26;100.00;99758.13;5140957;27;47170;-94
2022/10/24 01:14:18;;;;;;;;;0.50;0.50;;;;;15.40;100.00;99800.84;5120369;27;45524;-95
2022/10/24 01:16:52;;;;;;;;;1.75;1.00;;;;;15.83;100.00;99868.81;5136509;27;45357;-93
2022/10/24 01:19:45;;;;;;;;;0.50;0.50;;;;;15.79;100.00;99884.06;5141187;27;45506;-93
2022/10/24 01:22:31;;;;;;;;;0.25;0.00;;;;;14.66;100.00;99692.88;5135991;27;45567;-93
2022/10/24 01:25:23;;;;;;;;;0.00;0.00;;;;;15.78;100.00;99898.34;5124171;27;46307;-92
2022/10/24 01:28:00;;;;;;;;;0.00;0.00;;;;;15.26;100.00;99806.03;5127827;27;44642;-92
2022/10/24 01:30:29;;;;;;;;;1.25;1.25;;;;;15.78;100.00;99904.53;5124368;27;45353;-92
2022/10/24 01:33:14;;;;;;;;;0.75;0.25;;;;;15.81;100.00;99908.84;5137932;27;47166;-94
2022/10/24 01:35:48;;;;;;;;;0.00;0.00;;;;;15.82;100.00;99907.91;5136032;27;45448;-93
2022/10/24 01:38:30;;;;;;;;;0.00;0.00;;;;;15.31;100.00;99819.09;5131777;27;45309;-93
2022/10/24 01:41:01;;;;;;;;;0.00;0.00;;;;;14.63;100.00;99708.13;5117904;27;45653;-92
2022/10/24 01:43:32;;;;;;;;;0.00;0.00;;;;;15.28;100.00;99810.31;5141077;27;47077;-93
2022/10/24 01:46:02;;;;;;;;;0.00;0.00;;;;;15.90;100.00;99910.19;5130213;27;45193;-92
2022/10/24 01:48:34;;;;;;;;;1.25;0.25;;;;;15.34;100.00;99827.78;5115258;27;44826;-93
2022/10/24 01:51:02;;;;;;;;;0.50;0.00;;;;;15.90;100.00;99891.53;5137288;27;45510;-93
2022/10/24 01:53:29;;;;;;;;;1.25;0.00;;;;;15.15;100.00;99787.91;5132776;27;47895;-93
2022/10/24 01:55:56;;;;;;;;;0.00;0.00;;;;;15.17;100.00;99778.06;5116154;27;45391;-93
2022/10/24 01:58:21;;;;;;;;;0.25;0.25;;;;;15.52;100.00;99833.09;5116845;27;45484;-93
2022/10/24 02:00:48;;;;;;;;;2.75;1.00;;;;;14.78;100.00;99711.81;5133272;27;45269;-92
2022/10/24 02:03:20;;;;;;;;;1.00;0.75;;;;;15.88;100.00;99893.41;5133776;27;47341;-92
2022/10/24 02:05:52;;;;;;;;;0.00;0.00;;;;;15.30;100.00;99807.56;5136270;27;45549;-93
2022/10/24 02:08:24;;;;;;;;;0.00;0.00;;;;;15.67;100.00;99864.25;5142584;27;45233;-93
2022/10/24 02:10:54;;;;;;;;;1.00;0.00;;;;;15.61;100.00;99853.94;5110799;27;45306;-93
2022/10/24 02:13:58;;;;;;;;;0.50;0.50;;;;;15.60;100.00;99857.53;5107062;27;47732;-93
2022/10/24 02:16:24;;;;;;;;;0.50;0.00;;;;;15.28;100.00;99809.47;5109682;27;45221;-92
2022/10/24 02:18:51;;;;;;;;;1.25;0.00;;;;;15.27;100.00;99789.09;5122046;27;45001;-93
2022/10/24 02:21:26;;;;;;;;;3.50;1.00;;;;;15.84;100.00;99883.88;5128641;27;45259;-93
2022/10/24 02:24:00;;;;;;;;;1.00;0.00;;;;;15.25;100.00;99785.66;5126081;27;48100;-93
2022/10/24 02:26:28;;;;;;;;;0.75;0.75;;;;;15.79;100.00;99862.75;5128215;27;45570;-93
2022/10/24 02:28:57;;;;;;;;;1.75;0.25;;;;;14.73;100.00;99706.72;5138868;27;45509;-93
2022/10/24 02:31:30;;;;;;;;;0.25;0.25;;;;;14.99;100.00;99745.28;5135311;27;45367;-93
2022/10/24 02:33:56;;;;;;;;;1.00;0.00;;;;;15.72;100.00;99862.19;5137343;27;48734;-93
2022/10/24 02:36:26;;;;;;;;;1.75;0.75;;;;;14.97;100.00;99752.50;5119516;27;45273;-94
2022/10/24 02:38:54;;;;;;;;;0.50;0.50;;;;;15.15;100.00;99766.63;5139878;27;45456;-93
2022/10/24 02:41:26;;;;;;;;;0.00;0.00;;;;;14.59;100.00;99656.88;5120330;27;45261;-94
2022/10/24 02:43:55;;;;;;;;;0.75;0.00;;;;;14.57;100.00;99678.22;5122488;27;47367;-95
2022/10/24 02:46:22;;;;;;;;;2.00;0.50;;;;;15.65;100.00;99839.50;5103251;27;45313;-95
2022/10/24 02:48:57;;;;;;;;;0.75;0.00;;;;;15.61;100.00;99851.25;5108681;27;45171;-93
2022/10/24 02:51:27;;;;;;;;;2.00;1.50;;;;;14.81;100.00;99703.66;5115053;27;44937;-93
2022/10/24 02:53:54;;;;;;;;;4.00;1.00;;;;;15.61;100.00;99836.13;5111849;27;46605;-94
2022/10/24 02:56:20;;;;;;;;;1.75;1.00;;;;;14.90;100.00;99724.47;5109716;27;45267;-95
2022/10/24 02:58:45;;;;;;;;;1.00;0.00;;;;;15.03;100.00;99736.22;5115948;27;45222;-95
2022/10/24 03:01:11;;;;;;;;;1.25;0.25;;;;;14.78;100.00;99711.81;5122611;27;45197;-96
2022/10/24 03:03:36;;;;;;;;;2.00;1.00;;;;;14.62;100.00;99693.97;5099979;27;47178;-95
2022/10/24 03:06:02;;;;;;;;;0.00;0.00;;;;;15.27;100.00;99819.25;5115893;27;45284;-93
2022/10/24 03:08:27;;;;;;;;;2.00;1.00;;;;;15.07;100.00;99775.00;5101484;27;45234;-94
2022/10/24 03:10:53;;;;;;;;;2.25;0.25;;;;;14.62;100.00;99719.69;5119004;27;45234;-95
2022/10/24 03:13:18;;;;;;;;;2.00;0.75;;;;;14.34;100.00;99665.22;5102460;27;48551;-94
2022/10/24 03:15:44;;;;;;;;;1.50;0.75;;;;;14.68;100.00;99717.59;5102545;27;45198;-92
2022/10/24 03:18:09;;;;;;;;;0.75;0.50;;;;;13.55;100.00;99546.88;5107179;27;45321;-92
2022/10/24 03:20:36;;;;;;;;;0.00;0.00;;;;;14.19;100.00;99658.84;5105877;27;45286;-95
2022/10/24 03:23:01;;;;;;;;;0.25;0.25;;;;;14.94;100.00;99789.91;5110754;27;46414;-93
2022/10/24 03:25:26;;;;;;;;;1.25;0.25;;;;;14.63;100.00;99735.56;5114119;27;45490;-93
2022/10/24 03:27:52;;;;;;;;;0.50;0.00;;;;;13.41;100.00;99536.91;5102424;27;44783;-93
2022/10/24 03:30:17;;;;;;;;;0.50;0.00;;;;;13.71;100.00;99596.56;5119737;27;45351;-94
2022/10/24 03:32:43;;;;;;;;;2.50;1.25;;;;;12.82;100.00;99448.59;5099728;27;47857;-94
2022/10/24 03:35:08;;;;;;;;;2.50;2.00;;;;;14.80;100.00;99771.09;5117219;27;46034;-94
2022/10/24 03:37:34;;;;;;;;;1.50;0.50;;;;;14.26;100.00;99713.44;5117563;27;45347;-94
2022/10/24 03:39:59;;;;;;;;;0.00;0.00;;;;;14.79;100.00;99788.88;5119646;27;45497;-95
2022/10/24 03:42:25;;;;;;;;;0.75;0.00;;;;;14.95;100.00;99823.53;5124157;27;47036;-94
2022/10/24 03:44:50;;;;;;;;;0.25;0.25;;;;;14.30;100.00;99714.13;5124738;27;45296;-95
2022/10/24 03:47:15;;;;;;;;;0.00;0.00;;;;;13.99;100.00;99679.28;5104087;27;45484;-94
2022/10/24 03:49:41;;;;;;;;;0.00;0.00;;;;;14.16;100.00;99693.56;5100305;27;45252;-95
2022/10/24 03:52:06;;;;;;;;;4.00;2.75;;;;;14.43;100.00;99727.69;5104197;27;47108;-93
2022/10/24 03:54:35;;;;;;;;;1.00;1.00;;;;;15.08;100.00;99856.59;5124924;27;45413;-93
2022/10/24 03:57:01;;;;;;;;;0.00;0.00;;;;;14.74;100.00;99821.03;5136376;27;45371;-92
2022/10/24 03:59:26;;;;;;;;;4.00;1.00;;;;;14.13;100.00;99709.66;5120406;27;45327;-94
2022/10/24 04:01:52;;;;;;;;;0.75;0.75;;;;;14.25;100.00;99743.59;5118754;27;46006;-94
2022/10/24 04:04:17;;;;;;;;;1.00;1.00;;;;;14.16;100.00;99728.94;5137773;27;45560;-94
2022/10/24 04:06:43;;;;;;;;;1.00;0.75;;;;;14.61;100.00;99811.91;5119116;27;45353;-95
2022/10/24 04:09:08;;;;;;;;;2.25;2.25;;;;;14.81;100.00;99852.63;5124620;27;45507;-92
2022/10/24 04:11:33;;;;;;;;;0.00;0.00;;;;;15.16;100.00;99921.88;5121274;27;46862;-94
2022/10/24 04:14:02;;;;;;;;;0.50;0.50;;;;;14.10;100.00;99744.34;5139549;27;45242;-94
2022/10/24 04:16:27;;;;;;;;;3.00;1.50;;;;;14.54;100.00;99813.97;5121101;27;45277;-95
2022/10/24 04:18:53;;;;;;;;;1.00;1.00;;;;;14.61;100.00;99835.84;5118011;27;45245;-95
2022/10/24 04:21:18;;;;;;;;;2.25;1.25;;;;;13.65;100.00;99680.06;5117947;27;46908;-93
2022/10/24 04:23:44;;;;;;;;;1.00;1.00;;;;;14.54;100.00;99850.31;5111313;27;45211;-94
2022/10/24 04:26:12;;;;;;;;;3.00;1.00;;;;;14.44;100.00;99818.03;5139484;27;45203;-94
2022/10/24 04:28:38;;;;;;;;;2.00;0.75;;;;;14.38;100.00;99813.84;5128340;27;45416;-95
2022/10/24 04:31:03;;;;;;;;;1.00;1.00;;;;;13.74;100.00;99726.53;5143315;27;48183;-93
2022/10/24 04:33:29;;;;;;;;;2.75;2.25;;;;;15.06;100.00;99937.41;5139902;27;45308;-94
2022/10/24 04:35:54;;;;;;;;;1.00;1.00;;;;;14.54;100.00;99863.63;5136060;27;45274;-93
2022/10/24 04:38:20;;;;;;;;;2.00;1.00;;;;;13.46;100.00;99685.34;5137123;27;45304;-93
2022/10/24 04:40:48;;;;;;;;;0.50;0.50;;;;;14.85;100.00;99918.91;5135411;27;47460;-93
2022/10/24 04:43:13;;;;;;;;;1.00;1.00;;;;;14.36;100.00;99842.31;5134792;27;45919;-94
2022/10/24 04:45:38;;;;;;;;;1.75;1.75;;;;;15.06;100.00;99964.91;5118671;27;45227;-93
2022/10/24 04:48:04;;;;;;;;;2.00;1.00;;;;;14.74;100.00;99915.88;5120750;27;45517;-95
2022/10/24 04:50:30;;;;;;;;;1.75;1.00;;;;;15.03;100.00;99974.81;5120646;27;47090;-94
2022/10/24 04:52:55;;;;;;;;;3.00;0.00;;;;;13.66;100.00;99759.63;5145054;27;45453;-94
2022/10/24 04:55:20;;;;;;;;;2.00;2.00;;;;;13.25;100.00;99679.19;5153735;27;45439;-92
2022/10/24 04:57:46;;;;;;;;;1.00;1.00;;;;;14.39;100.00;99874.06;5152225;27;44936;-94
2022/10/24 05:00:12;;;;;;;;;1.00;1.00;;;;;13.95;100.00;99805.25;5136016;27;46920;-95
2022/10/24 05:02:37;;;;;;;;;0.50;0.50;;;;;13.63;100.00;99757.09;5121723;27;45485;-94
2022/10/24 05:05:04;;;;;;;;;1.75;1.75;;;;;14.52;100.00;99921.34;5118719;27;45247;-94
2022/10/24 05:07:29;;;;;;;;;1.25;1.25;;;;;13.53;100.00;99773.50;5116800;27;45320;-93
2022/10/24 05:09:54;;;;;;;;;3.00;1.75;;;;;13.82;100.00;99809.38;5118555;27;47209;-93
2022/10/24 05:12:20;;;;;;;;;2.25;1.25;;;;;13.26;100.00;99732.19;5120593;27;45301;-93
2022/10/24 05:14:46;;;;;;;;;2.50;1.50;;;;;13.76;100.00;99815.84;5118642;27;45374;-93
2022/10/24 05:17:13;;;;;;;;;3.00;1.75;;;;;14.37;100.00;99917.59;5118892;27;45478;-94
2022/10/24 05:19:38;;;;;;;;;0.50;0.50;;;;;14.29;100.00;99917.94;5130804;27;46775;-93
2022/10/24 05:22:03;;;;;;;;;1.75;0.00;;;;;14.62;100.00;99980.28;5124660;27;45252;-93
2022/10/24 05:24:29;;;;;;;;;1.75;1.75;;;;;14.30;100.00;99924.13;5139403;27;45213;-93
2022/10/24 05:26:54;;;;;;;;;0.00;0.00;;;;;12.25;100.00;99589.84;5119258;27;45179;-94
2022/10/24 05:29:20;;;;;;;;;2.00;1.00;;;;;14.17;100.00;99915.84;5118925;27;47100;-93
2022/10/24 05:31:46;;;;;;;;;1.00;1.00;;;;;13.85;100.00;99857.91;5122386;27;45232;-94
2022/10/24 05:34:12;;;;;;;;;4.00;3.00;;;;;13.24;100.00;99765.00;5105790;27;45397;-95
2022/10/24 05:36:38;;;;;;;;;3.75;0.50;;;;;13.89;100.00;99879.03;5136451;27;45477;-94
2022/10/24 05:39:04;;;;;;;;;1.00;1.00;;;;;14.83;100.00;100036.97;5125135;27;48209;-92
2022/10/24 05:41:31;;;;;;;;;3.00;2.75;;;;;13.45;100.00;99811.00;5122633;27;45690;-94
2022/10/24 05:43:56;;;;;;;;;1.50;1.50;;;;;12.04;100.00;99573.06;5117618;27;45314;-94
2022/10/24 05:46:22;;;;;;;;;3.75;2.75;;;;;14.31;100.00;99977.22;5139891;27;45151;-92
2022/10/24 05:48:47;;;;;;;;;2.75;1.00;;;;;14.70;100.00;100010.94;5117650;27;47021;-94
2022/10/24 05:51:13;;;;;;;;;2.75;1.50;;;;;14.58;100.00;99995.50;5104704;27;45278;-92
2022/10/24 05:53:40;;;;;;;;;2.00;1.00;;;;;14.91;100.00;100045.47;5138414;27;45249;-93
2022/10/24 05:56:05;;;;;;;;;1.50;1.50;;;;;14.39;100.00;99950.28;5115193;27;45587;-92
2022/10/24 05:58:32;;;;;;;;;3.50;2.00;;;;;14.67;100.00;99999.59;5116992;27;46964;-94
2022/10/24 06:00:57;;;;;;;;;0.50;0.50;;;;;14.90;100.00;100043.75;5120041;27;45323;-93
2022/10/24 06:03:23;;;;;;;;;2.25;1.25;;;;;13.63;100.00;99823.47;5121670;27;45312;-92
2022/10/24 06:05:49;;;;;;;;;1.00;1.00;;;;;13.23;100.00;99763.31;5129573;27;45237;-93
2022/10/24 06:08:15;;;;;;;;;2.00;2.00;;;;;14.74;100.00;100023.16;5120514;27;48067;-94
2022/10/24 06:10:41;;;;;;;;;1.00;1.00;;;;;12.47;100.00;99641.91;5128968;27;45119;-94
2022/10/24 06:13:06;;;;;;;;;3.50;2.25;;;;;14.92;100.00;100041.84;5134194;27;45250;-94
2022/10/24 06:15:32;;;;;;;;;1.75;1.75;;;;;14.37;100.00;99945.03;5136081;27;44827;-94
2022/10/24 06:17:57;;;;;;;;;2.75;1.00;;;;;14.55;100.00;99990.34;5134614;27;46255;-94
2022/10/24 06:20:23;;;;;;;;;2.00;0.50;;;;;13.86;100.00;99890.63;5137712;27;45520;-95
2022/10/24 06:22:49;;;;;;;;;0.75;0.75;;;;;13.12;100.00;99746.06;5140747;27;45246;-94
2022/10/24 06:25:16;;;;;;;;;1.00;1.00;;;;;13.76;100.00;99863.63;5140999;27;45224;-93
2022/10/24 06:27:41;;;;;;;;;2.75;2.75;;;;;14.95;100.00;100073.66;5129454;27;47364;-94
2022/10/24 06:30:09;;;;;;;;;4.25;1.25;;;;;13.61;100.00;99828.00;5127206;27;44796;-94
2022/10/24 06:32:35;;;;;;;;;4.75;1.75;;;;;14.91;100.00;100058.78;5123588;27;45429;-94
2022/10/24 06:35:00;;;;;;;;;2.75;1.50;;;;;14.54;100.00;100004.56;5135185;27;44859;-93
2022/10/24 06:37:27;;;;;;;;;2.00;2.00;;;;;14.87;100.00;100070.47;5121292;27;46474;-94
2022/10/24 06:39:53;;;;;;;;;4.00;2.25;;;;;14.26;100.00;99975.72;5136923;27;45277;-93
2022/10/24 06:42:19;;;;;;;;;3.50;1.75;;;;;14.32;100.00;99994.88;5133768;27;44803;-92
2022/10/24 06:44:45;;;;;;;;;1.50;1.50;;;;;13.46;100.00;99877.31;5132645;27;44967;-94
2022/10/24 06:47:12;;;;;;;;;1.75;1.00;;;;;14.83;100.00;100091.03;5136703;27;46167;-93
2022/10/24 06:49:38;;;;;;;;;5.00;2.25;;;;;14.81;100.00;100095.56;5139259;27;44820;-93
2022/10/24 06:52:03;;;;;;;;;4.00;2.00;;;;;14.26;100.00;100003.13;5139751;27;44766;-94
2022/10/24 06:54:29;;;;;;;;;4.00;2.00;;;;;14.52;100.00;100043.66;5136259;27;45272;-94
2022/10/24 06:56:55;;;;;;;;;0.00;0.00;;;;;13.44;100.00;99883.63;5107948;27;47156;-93
2022/10/24 06:59:20;;;;;;;;;2.00;2.00;;;;;14.73;100.00;100095.91;5126961;27;45180;-92
2022/10/24 07:01:47;;;;;;;;;1.50;1.50;;;;;13.07;100.00;99814.38;5126862;27;45248;-92
2022/10/24 07:04:12;;;;;;;;;2.00;1.25;;;;;13.22;100.00;99835.88;5123124;27;45265;-94
2022/10/24 07:06:38;;;;;;;;;3.00;1.25;;;;;13.15;100.00;99838.78;5120854;27;47198;-95
2022/10/24 07:09:04;;;;;;;;;2.00;2.00;;;;;14.12;100.00;100003.75;5105032;27;45413;-95
2022/10/24 07:11:30;;;;;;;;;1.25;0.25;;;;;14.18;100.00;100010.56;5123545;27;45206;-94
2022/10/24 07:13:55;;;;;;;;;4.00;2.50;;;;;13.89;100.00;99959.56;5120385;27;45226;-93
2022/10/24 07:16:21;;;;;;;;;3.00;3.00;;;;;13.58;100.00;99910.44;5120449;27;47782;-91
2022/10/24 07:18:47;;;;;;;;;2.50;0.50;;;;;14.19;100.00;100029.09;5139215;27;45439;-95
2022/10/24 07:21:19;;;;;;;;;3.50;1.50;;;;;14.80;100.00;100108.94;5144052;27;45799;-94
2022/10/24 07:23:45;;;;;;;;;3.00;1.00;;;;;14.66;100.00;100089.13;5150076;27;45611;-91
2022/10/24 07:26:16;;;;;;;;;3.75;1.75;;;;;14.13;100.00;100002.81;5123938;27;47010;-91
2022/10/24 07:28:46;;;;;;;;;2.00;1.50;;;;;14.71;100.00;100089.81;5139464;27;45412;-94
2022/10/24 07:31:22;;;;;;;;;3.50;0.00;;;;;14.02;100.00;99947.47;5120081;27;45409;-93
2022/10/24 07:33:48;;;;;;;;;1.00;0.25;;;;;15.25;100.00;100155.69;5135633;27;45333;-93
2022/10/24 07:36:18;;;;;;;;;3.00;1.00;;;;;15.33;100.00;100142.88;5130411;27;47030;-91
2022/10/24 07:38:45;;;;;;;;;2.25;1.25;;;;;14.75;100.00;100039.97;5106818;27;45300;-92
2022/10/24 07:41:10;;;;;;;;;2.75;2.25;;;;;14.73;100.00;100026.75;5135839;27;45421;-92
2022/10/24 07:43:36;;;;;;;;;1.75;1.75;;;;;14.79;100.00;100024.72;5122493;27;45470;-93
2022/10/24 07:46:08;;;;;;;;;1.75;1.00;;;;;14.97;100.00;100055.84;5136655;27;47134;-92
2022/10/24 07:48:34;;;;;;;;;2.25;0.75;;;;;15.19;100.00;100097.41;5123011;27;45280;-93
2022/10/24 07:51:04;;;;;;;;;4.25;0.50;;;;;15.06;100.00;100066.03;5120951;27;44650;-93
2022/10/24 07:53:30;;;;;;;;;1.50;0.25;;;;;15.41;100.00;100130.06;5121793;27;45415;-93
2022/10/24 07:55:58;;;;;;;;;2.00;0.25;;;;;15.60;100.00;100145.19;5126086;27;48416;-92
2022/10/24 07:58:24;;;;;;;;;1.00;1.00;;;;;15.77;100.00;100169.22;5131304;27;45254;-91
2022/10/24 08:00:50;;;;;;;;;3.00;3.00;;;;;15.19;100.00;100062.81;5133519;27;45176;-91
2022/10/24 08:03:16;;;;;;;;;3.75;0.50;;;;;15.02;100.00;100016.56;5132301;27;45012;-91
2022/10/24 08:05:47;;;;;;;;;5.25;1.75;;;;;15.66;100.00;100086.28;5127818;27;47216;-92
2022/10/24 08:18:29;;;;;;;;;4.00;2.00;;;;;16.09;100.00;100104.63;5062602;28;45486;-93
2022/10/24 08:20:58;;;;;;;;;1.00;1.00;;;;;15.86;100.00;100066.66;5057155;28;45517;-93
2022/10/24 08:23:24;;;;;;;;;4.75;0.75;;;;;16.18;100.00;100136.16;5059149;28;44980;-92
2022/10/24 08:25:50;;;;;;;;;2.50;0.75;;;;;15.34;100.00;99992.00;5074036;28;45289;-91
2022/10/24 08:28:15;;;;;;;;;2.00;0.75;;;;;15.74;100.00;100054.78;5060260;28;48001;-93
2022/10/24 08:30:41;;;;;;;;;1.25;0.75;;;;;15.78;100.00;100072.38;5058373;28;45416;-93
2022/10/24 08:33:06;;;;;;;;;0.25;0.25;;;;;15.50;100.00;100016.06;5056556;28;45611;-91
2022/10/24 08:35:31;;;;;;;;;2.00;2.00;;;;;16.03;100.00;100111.13;5057395;28;45629;-91
2022/10/24 08:38:00;;;;;;;;;1.25;1.25;;;;;15.66;100.00;100054.31;5062702;28;45438;-91
2022/10/24 08:40:26;;;;;;;;;1.50;1.00;;;;;16.02;100.00;100121.88;5049528;28;45287;-92
2022/10/24 08:42:53;;;;;;;;;0.75;0.75;;;;;16.56;100.00;100204.50;5054793;28;45530;-92
2022/10/24 08:45:32;;;;;;;;;2.25;0.50;;;;;16.03;100.00;100121.78;5057780;28;45396;-93
2022/10/24 08:48:08;;;;;;;;;1.50;1.00;;;;;16.55;100.00;100219.66;5120443;27;47853;-93
2022/10/24 08:50:35;;;;;;;;;1.75;1.75;;;;;16.54;100.00;100201.06;5119533;27;45387;-91
2022/10/24 08:53:09;;;;;;;;;3.75;2.50;;;;;16.21;100.00;100161.81;5121725;27;45281;-91
2022/10/24 08:55:43;;;;;;;;;2.25;1.25;;;;;15.81;100.00;100090.03;5123248;27;45438;-91
2022/10/24 08:58:36;;;;;;;;;2.00;2.00;;;;;15.96;100.00;100101.72;5132249;27;46723;-91
2022/10/24 09:01:11;;;;;;;;;2.25;1.00;;;;;15.88;100.00;100096.78;5122988;27;45471;-90
2022/10/24 09:03:46;;;;;;;;;2.00;1.25;;;;;16.61;100.00;100213.13;5121379;27;45216;-90
2022/10/24 09:06:22;;;;;;;;;1.25;1.25;;;;;15.50;100.00;100016.06;5123455;27;45471;-94
2022/10/24 09:09:07;;;;;;;;;0.75;0.75;;;;;16.05;100.00;100105.72;5121297;27;46983;-92
2022/10/24 09:11:42;;;;;;;;;2.75;1.50;;;;;16.81;100.00;100196.97;5125024;27;45259;-93
2022/10/24 09:14:20;;;;;;;;;2.25;1.00;;;;;17.12;100.00;100207.88;5136501;27;45468;-93
2022/10/24 09:16:52;;;;;;;;;5.00;4.00;;;;;16.30;100.00;100028.88;5117861;27;45624;-93
2022/10/24 09:19:23;;;;;;;;;4.00;1.75;;;;;16.25;100.00;99977.59;5120752;27;48139;-93
2022/10/24 09:21:52;;;;;;;;;1.00;0.75;;;;;17.14;100.00;100089.38;5125878;27;45446;-92
2022/10/24 09:24:39;;;;;;;;;0.00;0.00;;;;;18.19;100.00;100222.50;5127802;27;45274;-94
2022/10/24 09:27:17;;;;;;;;;2.25;1.25;;;;;18.23;100.00;100216.00;5146387;27;45258;-93
2022/10/24 09:29:42;;;;;;;;;3.00;2.00;;;;;18.56;100.00;100220.34;5128208;27;47279;-92
2022/10/24 09:32:16;;;;;;;;;1.25;1.25;;;;;17.49;100.00;100001.06;5146560;27;45311;-93
2022/10/24 09:34:41;;;;;;;;;5.00;1.25;;;;;17.80;100.00;100028.66;5135914;27;45515;-92
2022/10/24 09:37:28;;;;;;;;;2.00;1.25;;;;;18.93;99.97;100217.34;5124807;27;45512;-92
2022/10/24 09:40:32;;;;;;;;;4.25;3.25;;;;;17.97;100.00;100073.16;5105694;27;47114;-92
2022/10/24 09:43:21;;;;;;;;;3.00;2.25;;;;;18.39;100.00;100158.97;5115663;27;45448;-93
2022/10/24 09:45:58;;;;;;;;;6.25;3.00;;;;;18.16;100.00;100123.75;5137677;27;45191;-92
2022/10/24 09:48:44;;;;;;;;;6.00;2.00;;;;;17.24;100.00;99990.94;5135497;27;45559;-91
2022/10/24 09:51:39;;;;;;;;;2.75;1.75;;;;;16.48;100.00;99877.69;5140822;27;48223;-93
2022/10/24 09:54:17;;;;;;;;;3.00;1.50;;;;;18.34;100.00;100206.50;5104360;27;45305;-94
2022/10/24 09:56:51;;;;;;;;;3.25;2.00;;;;;18.54;100.00;100246.34;5145309;27;45342;-93
2022/10/24 09:59:37;;;;;;;;;3.25;1.75;;;;;18.44;100.00;100247.84;5121194;27;45558;-93
2022/10/24 10:02:24;;;;;;;;;1.50;1.50;;;;;18.38;100.00;100262.44;5125053;27;47693;-94
2022/10/24 10:05:15;;;;;;;;;4.75;2.25;;;;;18.35;100.00;100259.06;5122348;27;45438;-89
2022/10/24 10:07:47;;;;;;;;;2.00;1.25;;;;;17.82;100.00;100176.44;5132950;27;45488;-91
2022/10/24 10:10:46;;;;;;;;;;;;;;;;;;;;;
2022/10/24 10:13:14;;;;;;;;;4.25;2.00;;;;;18.41;100.00;100270.28;5100573;27;75918;-91
2022/10/24 10:15:46;;;;;;;;;2.75;1.50;;;;;18.44;100.00;100267.41;5099139;27;45353;-92
2022/10/24 10:18:32;;;;;;;;;1.00;1.00;;;;;18.55;100.00;100266.78;5109150;27;44808;-93
2022/10/24 10:21:20;;;;;;;;;3.25;3.00;;;;;17.34;100.00;100047.31;5110002;27;44886;-94
2022/10/24 10:23:53;;;;;;;;;2.50;1.00;;;;;17.75;100.00;100110.94;5116823;27;45399;-94
2022/10/24 10:26:48;;;;;;;;;3.75;1.75;;;;;18.81;100.00;100269.75;5114455;27;44803;-92
2022/10/24 10:29:19;;;;;;;;;3.00;3.00;;;;;18.85;100.00;100257.94;5052256;28;45000;-92
2022/10/24 10:31:55;;;;;;;;;1.50;1.50;;;;;18.52;100.00;100207.25;5041762;28;45215;-92
2022/10/24 10:34:29;;;;;;;;;3.00;2.00;;;;;18.09;100.00;100146.44;5026177;28;45287;-93
2022/10/24 10:37:21;;;;;;;;;2.50;2.00;;;;;19.04;100.00;100272.91;5042619;28;45228;-90
2022/10/24 10:40:02;;;;;;;;;3.50;2.00;;;;;19.15;100.00;100260.59;5045287;28;45424;-89
2022/10/24 10:42:37;;;;;;;;;1.00;1.00;;;;;19.33;100.00;100276.53;5053660;28;45393;-91
2022/10/24 10:45:31;;;;;;;;;1.75;0.50;;;;;19.02;100.00;100189.16;5039440;28;47024;-90
2022/10/24 10:48:16;;;;;;;;;1.25;1.25;;;;;19.60;100.00;100276.63;5037456;28;45475;-90
2022/10/24 10:50:57;;;;;;;;;3.00;1.00;;;;;19.68;100.00;100263.59;5037835;28;45428;-90
2022/10/24 10:54:11;;;;;;;;;2.00;2.00;;;;;19.64;99.09;100235.25;5039754;28;45581;-90
2022/10/24 10:57:11;;;;;;;;;5.75;3.00;;;;;20.02;100.00;100261.47;4967262;28;45233;-93
2022/10/24 11:00:01;;;;;;;;;1.75;1.75;;;;;20.32;100.00;100267.66;4865438;29;45514;-91
2022/10/24 11:02:54;;;;;;;;;2.25;2.25;;;;;20.52;100.00;100274.38;4866541;29;45245;-90
2022/10/24 11:05:31;;;;;;;;;1.75;1.75;;;;;20.68;100.00;100280.47;4894737;28;45477;-92
2022/10/24 11:08:23;;;;;;;;;1.75;1.50;;;;;20.75;98.96;100281.78;4937238;28;47127;-89
2022/10/24 11:10:53;;;;;;;;;3.25;2.50;;;;;20.02;100.00;100158.72;4945158;28;46426;-89
2022/10/24 11:13:25;;;;;;;;;5.00;1.50;;;;;20.24;100.00;100215.34;4931065;28;45425;-89
2022/10/24 11:15:56;;;;;;;;;0.75;0.75;;;;;20.20;100.00;100194.19;4920499;28;45508;-89
2022/10/24 11:18:34;;;;;;;;;2.75;2.00;;;;;20.54;100.00;100235.75;4921395;28;46276;-89
2022/10/24 11:21:12;;;;;;;;;2.00;2.00;;;;;20.37;100.00;100214.53;4921170;28;45468;-89
2022/10/24 11:23:45;;;;;;;;;2.00;2.00;;;;;20.68;100.00;100272.44;4918791;28;45284;-88
2022/10/24 11:26:29;;;;;;;;;1.25;1.25;;;;;20.00;100.00;100190.13;4922914;28;45505;-88
2022/10/24 11:29:03;;;;;;;;;1.00;1.00;;;;;20.03;100.00;100196.16;4996133;28;46827;-89
2022/10/24 11:31:39;;;;;;;;;3.00;1.00;;;;;20.11;100.00;100221.63;5010473;28;45527;-89
2022/10/24 11:34:10;;;;;;;;;2.25;1.00;;;;;20.38;99.89;100243.94;5000594;28;45489;-91
2022/10/24 11:36:45;;;;;;;;;3.00;1.50;;;;;20.16;100.00;100179.25;5089510;27;45128;-90
2022/10/24 11:39:38;;;;;;;;;0.25;0.25;;;;;20.55;99.88;100204.38;5131685;27;45233;-90
2022/10/24 11:42:18;;;;;;;;;1.50;1.50;;;;;19.98;100.00;100099.06;5119908;27;45290;-90
2022/10/24 11:44:55;;;;;;;;;3.25;1.75;;;;;20.18;100.00;100129.06;5119247;27;45351;-91
2022/10/24 11:47:24;;;;;;;;;2.00;2.00;;;;;21.03;100.00;100277.22;5107457;27;45509;-90
2022/10/24 11:50:15;;;;;;;;;2.00;1.75;;;;;20.18;100.00;100153.19;5131236;27;46984;-92
2022/10/24 11:53:00;;;;;;;;;3.00;1.25;;;;;19.82;100.00;100067.03;5124543;27;45930;-92
2022/10/24 11:55:37;;;;;;;;;3.75;2.75;;;;;20.71;100.00;100198.84;5121650;27;45525;-91